createdAt,value
2018-04-24T00:01:44.760Z,10.10
2018-04-24T00:04:11.961Z,10.10
2018-04-24T00:06:38.471Z,10.10
2018-04-24T00:09:05.005Z,10.20
2018-04-24T00:11:31.485Z,10.10
2018-04-24T00:13:57.962Z,10.10
2018-04-24T00:16:25.215Z,10.10
2018-04-24T00:18:52.395Z,10.10
2018-04-24T00:21:18.835Z,10.10
2018-04-24T00:23:45.288Z,10.10
2018-04-24T00:26:11.811Z,10.00
2018-04-24T00:28:38.227Z,10.00
2018-04-24T00:31:04.702Z,10.10
2018-04-24T00:33:31.175Z,10.10
2018-04-24T00:35:58.351Z,10.10
2018-04-24T00:38:24.817Z,10.00
2018-04-24T00:40:51.332Z,10.10
2018-04-24T00:43:17.795Z,10.10
2018-04-24T00:45:44.262Z,10.00
2018-04-24T00:48:10.747Z,10.00
2018-04-24T00:50:38.288Z,10.00
2018-04-24T00:53:17.924Z,10.10
2018-04-24T00:55:44.401Z,10.10
2018-04-24T00:58:10.874Z,10.10
2018-04-24T01:00:37.376Z,10.10
2018-04-24T01:03:04.605Z,10.10
2018-04-24T01:05:31.043Z,10.00
2018-04-24T01:07:57.521Z,10.10
2018-04-24T01:10:24.709Z,10.10
2018-04-24T01:12:51.135Z,10.00
2018-04-24T01:15:17.579Z,10.00
2018-04-24T01:17:43.998Z,10.00
2018-04-24T01:20:10.498Z,10.00
2018-04-24T01:22:37.666Z,10.00
2018-04-24T01:25:04.175Z,10.00
2018-04-24T01:27:31.380Z,10.00
2018-04-24T01:29:57.828Z,10.00
2018-04-24T01:32:24.270Z,10.00
2018-04-24T01:34:50.687Z,10.00
2018-04-24T01:37:17.121Z,9.90
2018-04-24T01:39:43.594Z,9.90
2018-04-24T01:42:10.073Z,10.00
2018-04-24T01:44:36.538Z,10.00
2018-04-24T01:47:24.387Z,10.00
2018-04-24T01:49:50.819Z,10.00
2018-04-24T01:52:17.272Z,9.90
2018-04-24T01:54:44.454Z,9.90
2018-04-24T01:57:10.901Z,10.00
2018-04-24T01:59:37.354Z,10.00
2018-04-24T02:02:03.828Z,9.90
2018-04-24T02:04:31.034Z,9.90
2018-04-24T02:06:57.501Z,9.90
2018-04-24T02:09:23.962Z,9.90
2018-04-24T02:11:51.192Z,9.90
2018-04-24T02:14:18.401Z,9.90
2018-04-24T02:16:44.883Z,9.90
2018-04-24T02:19:11.331Z,9.90
2018-04-24T02:21:37.791Z,9.90
2018-04-24T02:24:04.251Z,9.90
2018-04-24T02:26:30.697Z,9.90
2018-04-24T02:28:57.167Z,9.90
2018-04-24T02:31:23.629Z,9.90
2018-04-24T02:33:50.081Z,9.90
2018-04-24T02:36:16.527Z,9.90
2018-04-24T02:38:42.997Z,9.90
2018-04-24T02:41:10.198Z,9.80
2018-04-24T02:43:36.663Z,9.80
2018-04-24T02:46:03.881Z,9.80
2018-04-24T02:48:30.379Z,9.80
2018-04-24T02:50:57.573Z,9.90
2018-04-24T02:53:24.027Z,9.80
2018-04-24T02:55:50.459Z,9.80
2018-04-24T02:58:16.928Z,9.80
2018-04-24T03:00:44.098Z,9.90
2018-04-24T03:03:10.541Z,9.90
2018-04-24T03:05:37.005Z,9.90
2018-04-24T03:08:03.448Z,9.90
2018-04-24T03:10:29.930Z,10.00
2018-04-24T03:12:56.338Z,10.00
2018-04-24T03:15:23.618Z,9.90
2018-04-24T03:17:50.055Z,9.90
2018-04-24T03:20:16.519Z,10.00
2018-04-24T03:22:42.997Z,10.00
2018-04-24T03:25:10.162Z,10.00
2018-04-24T03:27:37.340Z,10.00
2018-04-24T03:30:03.784Z,10.00
2018-04-24T03:32:30.238Z,10.00
2018-04-24T03:34:56.701Z,10.00
2018-04-24T03:37:23.889Z,10.00
2018-04-24T03:39:50.367Z,10.00
2018-04-24T03:42:16.845Z,10.00
2018-04-24T03:44:43.275Z,10.00
2018-04-24T03:47:09.752Z,10.00
2018-04-24T03:49:36.220Z,10.00
2018-04-24T03:52:03.396Z,10.00
2018-04-24T03:54:29.860Z,10.00
2018-04-24T03:56:56.295Z,10.10
2018-04-24T03:59:22.747Z,10.10
2018-04-24T04:01:49.251Z,10.10
2018-04-24T04:04:15.780Z,10.00
2018-04-24T04:06:42.193Z,10.00
2018-04-24T04:09:09.371Z,10.10
2018-04-24T04:11:35.874Z,10.00
2018-04-24T04:14:03.089Z,10.10
2018-04-24T04:16:30.266Z,10.10
2018-04-24T04:19:09.567Z,10.10
2018-04-24T04:21:49.162Z,10.10
2018-04-24T04:24:27.912Z,10.00
2018-04-24T04:26:54.325Z,10.00
2018-04-24T04:29:20.785Z,10.00
2018-04-24T04:31:47.284Z,10.00
2018-04-24T04:34:14.469Z,10.00
2018-04-24T04:36:40.945Z,10.00
2018-04-24T04:39:07.399Z,10.10
2018-04-24T04:41:34.584Z,10.20
2018-04-24T04:44:01.029Z,10.20
2018-04-24T04:46:27.466Z,10.20
2018-04-24T04:48:53.932Z,10.30
2018-04-24T04:51:20.350Z,10.30
2018-04-24T04:53:46.768Z,10.40
2018-04-24T04:56:14.532Z,10.40
2018-04-24T04:58:40.978Z,10.40
2018-04-24T05:01:07.424Z,10.50
2018-04-24T05:03:33.872Z,10.50
2018-04-24T05:06:00.301Z,10.60
2018-04-24T05:08:26.738Z,10.60
2018-04-24T05:10:53.914Z,10.60
2018-04-24T05:13:21.087Z,10.70
2018-04-24T05:15:47.514Z,10.70
2018-04-24T05:18:13.997Z,10.70
2018-04-24T05:20:40.469Z,10.70
2018-04-24T05:23:06.914Z,10.70
2018-04-24T05:25:33.395Z,10.70
2018-04-24T05:27:59.832Z,10.80
2018-04-24T05:30:26.257Z,10.80
2018-04-24T05:32:52.675Z,10.80
2018-04-24T05:35:19.111Z,10.70
2018-04-24T05:37:45.525Z,10.60
2018-04-24T05:40:11.971Z,10.70
2018-04-24T05:42:38.375Z,10.70
2018-04-24T05:45:04.791Z,10.70
2018-04-24T05:47:31.952Z,10.80
2018-04-24T05:49:59.111Z,10.90
2018-04-24T05:52:25.520Z,10.90
2018-04-24T05:54:52.697Z,11.00
2018-04-24T05:57:19.119Z,11.00
2018-04-24T05:59:45.536Z,11.20
2018-04-24T06:02:11.951Z,11.20
2018-04-24T06:04:38.357Z,11.20
2018-04-24T06:07:04.784Z,11.20
2018-04-24T06:09:31.214Z,11.10
2018-04-24T06:11:57.645Z,11.10
2018-04-24T06:14:24.055Z,11.10
2018-04-24T06:16:50.486Z,11.20
2018-04-24T06:19:16.984Z,11.10
2018-04-24T06:21:43.340Z,11.10
2018-04-24T06:24:10.519Z,10.90
2018-04-24T06:26:36.933Z,10.90
2018-04-24T06:29:03.350Z,10.90
2018-04-24T06:31:30.526Z,10.80
2018-04-24T06:33:56.938Z,10.80
2018-04-24T06:36:24.099Z,10.80
2018-04-24T06:38:50.522Z,10.80
2018-04-24T06:41:16.928Z,10.80
2018-04-24T06:43:43.350Z,10.80
2018-04-24T06:46:09.769Z,10.90
2018-04-24T06:48:36.196Z,10.90
2018-04-24T06:51:02.652Z,10.80
2018-04-24T06:53:29.166Z,10.80
2018-04-24T06:55:55.522Z,10.90
2018-04-24T06:58:21.957Z,10.90
2018-04-24T07:00:48.379Z,10.90
2018-04-24T07:03:14.825Z,11.00
2018-04-24T07:05:41.234Z,11.00
2018-04-24T07:08:07.664Z,11.00
2018-04-24T07:10:34.074Z,11.10
2018-04-24T07:13:00.492Z,11.10
2018-04-24T07:15:27.674Z,11.30
2018-04-24T07:17:54.095Z,11.30
2018-04-24T07:20:20.537Z,11.40
2018-04-24T07:22:46.946Z,11.60
2018-04-24T07:25:13.379Z,11.70
2018-04-24T07:27:40.530Z,11.70
2018-04-24T07:30:07.676Z,11.70
2018-04-24T07:32:34.839Z,11.80
2018-04-24T07:35:02.020Z,11.80
2018-04-24T07:37:31.406Z,11.80
2018-04-24T07:39:57.833Z,11.90
2018-04-24T07:42:24.255Z,12.00
2018-04-24T07:44:50.684Z,11.90
2018-04-24T07:47:17.854Z,12.10
2018-04-24T07:49:44.268Z,12.00
2018-04-24T07:52:11.417Z,12.10
2018-04-24T07:54:38.576Z,12.20
2018-04-24T07:57:05.729Z,12.40
2018-04-24T07:59:32.909Z,12.60
2018-04-24T08:01:59.353Z,12.60
2018-04-24T08:04:25.785Z,12.80
2018-04-24T08:06:52.208Z,13.00
2018-04-24T08:09:18.631Z,13.10
2018-04-24T08:11:45.050Z,13.00
2018-04-24T08:14:11.465Z,13.20
2018-04-24T08:16:38.719Z,13.20
2018-04-24T08:19:05.072Z,13.20
2018-04-24T08:21:31.500Z,13.20
2018-04-24T08:23:57.930Z,13.30
2018-04-24T08:26:25.088Z,13.20
2018-04-24T08:28:51.530Z,13.20
2018-04-24T08:31:17.947Z,13.30
2018-04-24T08:33:44.395Z,13.20
2018-04-24T08:36:11.545Z,13.00
2018-04-24T08:38:37.976Z,13.00
2018-04-24T08:41:04.417Z,12.90
2018-04-24T08:43:30.896Z,12.90
2018-04-24T08:45:57.320Z,13.00
2018-04-24T08:48:23.726Z,13.10
2018-04-24T08:50:50.179Z,13.00
2018-04-24T08:53:16.632Z,13.00
2018-04-24T08:55:43.056Z,13.00
2018-04-24T08:58:09.485Z,13.10
2018-04-24T09:00:35.909Z,13.30
2018-04-24T09:03:02.350Z,13.40
2018-04-24T09:05:28.808Z,13.50
2018-04-24T09:07:55.245Z,13.60
2018-04-24T09:10:21.651Z,13.70
2018-04-24T09:12:48.063Z,13.70
2018-04-24T09:15:14.500Z,13.70
2018-04-24T09:17:40.924Z,14.00
2018-04-24T09:20:07.358Z,14.20
2018-04-24T09:22:33.768Z,14.40
2018-04-24T09:25:00.197Z,14.40
2018-04-24T09:27:27.372Z,14.20
2018-04-24T09:29:59.887Z,14.20
2018-04-24T09:32:26.326Z,14.10
2018-04-24T09:34:52.737Z,14.00
2018-04-24T09:37:19.155Z,13.90
2018-04-24T09:39:46.557Z,13.90
2018-04-24T09:42:12.990Z,14.00
2018-04-24T09:44:39.424Z,14.20
2018-04-24T09:47:05.850Z,14.20
2018-04-24T09:49:32.348Z,14.20
2018-04-24T09:51:59.477Z,14.10
2018-04-24T09:54:25.892Z,14.10
2018-04-24T09:56:53.056Z,14.10
2018-04-24T09:59:19.487Z,14.10
2018-04-24T10:01:45.923Z,14.20
2018-04-24T10:04:12.359Z,14.20
2018-04-24T10:06:38.770Z,13.90
2018-04-24T10:09:05.938Z,14.20
2018-04-24T10:11:32.444Z,14.20
2018-04-24T10:13:58.889Z,14.30
2018-04-24T10:16:26.059Z,14.00
2018-04-24T10:18:52.487Z,14.00
2018-04-24T10:21:19.709Z,14.30
2018-04-24T10:23:46.178Z,14.20
2018-04-24T10:26:13.342Z,14.50
2018-04-24T10:28:39.766Z,14.50
2018-04-24T10:31:06.180Z,14.60
2018-04-24T10:33:33.333Z,14.60
2018-04-24T10:35:59.744Z,14.60
2018-04-24T10:38:26.167Z,14.70
2018-04-24T10:40:52.587Z,15.00
2018-04-24T10:43:19.006Z,14.80
2018-04-24T10:45:45.441Z,15.30
2018-04-24T10:48:11.870Z,15.70
2018-04-24T10:50:38.296Z,15.60
2018-04-24T10:53:04.729Z,15.30
2018-04-24T10:55:31.137Z,15.50
2018-04-24T10:57:58.941Z,15.70
2018-04-24T11:00:25.366Z,15.70
2018-04-24T11:02:51.802Z,15.80
2018-04-24T11:05:18.203Z,15.80
2018-04-24T11:07:45.371Z,16.10
2018-04-24T11:10:11.798Z,16.00
2018-04-24T11:12:38.222Z,16.10
2018-04-24T11:15:05.406Z,16.20
2018-04-24T11:17:31.905Z,16.20
2018-04-24T11:19:59.043Z,16.00
2018-04-24T11:22:25.462Z,15.90
2018-04-24T11:24:51.890Z,15.90
2018-04-24T11:27:18.341Z,15.60
2018-04-24T11:29:44.755Z,15.40
2018-04-24T11:32:11.169Z,15.20
2018-04-24T11:34:37.591Z,15.40
2018-04-24T11:37:04.023Z,15.60
2018-04-24T11:39:30.442Z,15.70
2018-04-24T11:41:56.864Z,15.60
2018-04-24T11:44:24.056Z,15.50
2018-04-24T11:46:50.472Z,15.50
2018-04-24T11:49:16.906Z,15.50
2018-04-24T11:51:43.341Z,15.50
2018-04-24T11:54:09.774Z,15.60
2018-04-24T11:56:36.204Z,15.70
2018-04-24T11:59:02.651Z,15.90
2018-04-24T12:01:29.064Z,16.20
2018-04-24T12:03:55.477Z,16.40
2018-04-24T12:06:21.926Z,16.50
2018-04-24T12:08:48.359Z,16.20
2018-04-24T12:11:14.782Z,16.20
2018-04-24T12:13:41.183Z,16.10
2018-04-24T12:16:07.610Z,16.20
2018-04-24T12:18:34.033Z,16.20
2018-04-24T12:21:00.456Z,16.10
2018-04-24T12:23:26.869Z,16.10
2018-04-24T12:25:53.286Z,16.10
2018-04-24T12:28:20.442Z,15.80
2018-04-24T12:30:46.866Z,15.80
2018-04-24T12:33:13.292Z,15.70
2018-04-24T12:35:39.735Z,15.90
2018-04-24T12:38:06.883Z,16.60
2018-04-24T12:40:34.045Z,17.00
2018-04-24T12:43:00.484Z,17.00
2018-04-24T12:45:26.911Z,17.10
2018-04-24T12:47:53.361Z,17.10
2018-04-24T12:50:19.786Z,17.10
2018-04-24T12:52:46.237Z,16.90
2018-04-24T12:55:12.667Z,17.10
2018-04-24T12:57:39.121Z,17.20
2018-04-24T13:00:05.616Z,17.20
2018-04-24T13:02:32.038Z,17.20
2018-04-24T13:04:58.469Z,17.00
2018-04-24T13:07:25.626Z,16.70
2018-04-24T13:09:52.877Z,16.50
2018-04-24T13:12:19.334Z,16.50
2018-04-24T13:14:45.814Z,16.60
2018-04-24T13:17:12.280Z,17.00
2018-04-24T13:19:38.723Z,17.20
2018-04-24T13:22:05.145Z,17.40
2018-04-24T13:24:32.295Z,17.20
2018-04-24T13:26:59.476Z,17.30
2018-04-24T13:29:25.918Z,17.30
2018-04-24T13:31:52.342Z,17.30
2018-04-24T13:34:18.754Z,17.20
2018-04-24T13:36:45.244Z,17.30
2018-04-24T13:39:11.656Z,17.50
2018-04-24T13:41:38.072Z,17.90
2018-04-24T13:44:04.493Z,18.30
2018-04-24T13:46:30.910Z,18.40
2018-04-24T13:48:58.150Z,18.50
2018-04-24T13:51:24.557Z,18.40
2018-04-24T13:53:51.702Z,18.20
2018-04-24T13:56:18.112Z,18.20
2018-04-24T13:58:44.530Z,18.10
2018-04-24T14:01:10.945Z,18.10
2018-04-24T14:03:38.100Z,17.60
2018-04-24T14:06:05.290Z,17.40
2018-04-24T14:08:31.721Z,17.40
2018-04-24T14:10:58.148Z,17.60
2018-04-24T14:13:24.559Z,17.60
2018-04-24T14:15:50.991Z,17.60
2018-04-24T14:18:17.578Z,17.60
2018-04-24T14:20:44.028Z,17.70
2018-04-24T14:23:10.452Z,17.70
2018-04-24T14:25:36.878Z,17.40
2018-04-24T14:28:03.319Z,17.40
2018-04-24T14:30:29.786Z,17.50
2018-04-24T14:32:56.953Z,17.70
2018-04-24T14:35:23.374Z,17.70
2018-04-24T14:37:50.550Z,17.80
2018-04-24T14:40:16.999Z,17.80
2018-04-24T14:42:43.478Z,17.90
2018-04-24T14:45:09.849Z,17.80
2018-04-24T14:47:36.266Z,18.00
2018-04-24T14:50:02.764Z,18.10
2018-04-24T14:52:29.198Z,18.10
2018-04-24T14:54:55.605Z,18.20
2018-04-24T14:57:22.034Z,18.00
2018-04-24T14:59:48.458Z,18.10
2018-04-24T15:02:14.879Z,18.10
2018-04-24T15:04:41.326Z,18.00
2018-04-24T15:07:07.773Z,18.10
2018-04-24T15:09:34.206Z,18.30
2018-04-24T15:12:00.657Z,18.40
2018-04-24T15:14:27.105Z,18.30
2018-04-24T15:16:54.283Z,18.30
2018-04-24T15:19:20.705Z,18.30
2018-04-24T15:21:47.878Z,18.10
2018-04-24T15:24:14.295Z,18.10
2018-04-24T15:26:40.752Z,18.00
2018-04-24T15:29:07.192Z,17.80
2018-04-24T15:31:33.661Z,17.70
2018-04-24T15:34:00.094Z,17.70
2018-04-24T15:36:27.362Z,17.70
2018-04-24T15:38:53.763Z,17.70
2018-04-24T15:41:20.174Z,17.80
2018-04-24T15:43:46.608Z,17.70
2018-04-24T15:46:13.028Z,17.60
2018-04-24T15:48:39.449Z,17.60
2018-04-24T15:51:06.627Z,17.40
2018-04-24T15:53:33.065Z,17.40
2018-04-24T15:55:59.517Z,17.40
2018-04-24T15:58:25.927Z,17.50
2018-04-24T16:00:52.353Z,17.70
2018-04-24T16:03:20.075Z,18.00
2018-04-24T16:05:46.937Z,18.20
2018-04-24T16:10:59.914Z,18.40
2018-04-24T16:16:14.434Z,18.00
2018-04-24T16:18:40.866Z,18.00
2018-04-24T16:21:07.300Z,18.00
2018-04-24T16:23:33.731Z,17.80
2018-04-24T16:26:00.928Z,18.00
2018-04-24T16:28:27.348Z,18.00
2018-04-24T16:30:53.796Z,18.20
2018-04-24T16:33:20.227Z,18.20
2018-04-24T16:35:46.726Z,18.20
2018-04-24T16:38:13.096Z,18.20
2018-04-24T16:40:39.518Z,18.20
2018-04-24T16:43:05.967Z,18.00
2018-04-24T16:45:32.437Z,17.80
2018-04-24T16:47:58.931Z,17.70
2018-04-24T16:50:25.338Z,17.70
2018-04-24T16:52:51.761Z,17.60
2018-04-24T16:55:18.956Z,17.60
2018-04-24T16:57:45.395Z,17.60
2018-04-24T17:00:11.855Z,17.70
2018-04-24T17:02:38.300Z,17.70
2018-04-24T17:05:04.741Z,17.80
2018-04-24T17:07:31.168Z,17.80
2018-04-24T17:09:57.609Z,17.80
2018-04-24T17:12:24.042Z,17.70
2018-04-24T17:14:50.475Z,17.60
2018-04-24T17:17:16.941Z,17.60
2018-04-24T17:19:43.357Z,17.50
2018-04-24T17:22:10.531Z,17.30
2018-04-24T17:24:36.954Z,17.30
2018-04-24T17:27:03.428Z,17.30
2018-04-24T17:29:29.871Z,17.30
2018-04-24T17:31:56.305Z,17.20
2018-04-24T17:34:22.738Z,17.10
2018-04-24T17:36:49.173Z,17.10
2018-04-24T17:39:15.606Z,17.10
2018-04-24T17:41:42.033Z,17.00
2018-04-24T17:44:12.440Z,17.00
2018-04-24T17:46:41.613Z,17.00
2018-04-24T17:49:08.044Z,17.00
2018-04-24T17:51:35.228Z,17.00
2018-04-24T17:54:01.685Z,17.00
2018-04-24T17:56:28.103Z,17.00
2018-04-24T17:58:54.540Z,16.90
2018-04-24T18:01:21.005Z,17.00
2018-04-24T18:03:47.449Z,16.90
2018-04-24T18:06:14.668Z,16.80
2018-04-24T18:08:41.100Z,16.80
2018-04-24T18:11:07.555Z,16.90
2018-04-24T18:13:33.983Z,16.80
2018-04-24T18:16:00.447Z,16.90
2018-04-24T18:18:27.978Z,16.80
2018-04-24T18:20:54.405Z,16.80
2018-04-24T18:23:20.841Z,16.80
2018-04-24T18:25:47.266Z,16.70
2018-04-24T18:28:13.752Z,16.70
2018-04-24T18:30:40.966Z,16.70
2018-04-24T18:33:07.406Z,16.70
2018-04-24T18:35:33.838Z,16.60
2018-04-24T18:38:00.275Z,16.50
2018-04-24T18:40:26.707Z,16.50
2018-04-24T18:42:53.123Z,16.50
2018-04-24T18:45:19.555Z,16.50
2018-04-24T18:47:45.981Z,16.50
2018-04-24T18:50:12.407Z,16.50
2018-04-24T18:52:38.830Z,16.50
2018-04-24T18:55:05.303Z,16.50
2018-04-24T18:57:31.738Z,16.50
2018-04-24T18:59:58.937Z,16.50
2018-04-24T19:02:25.373Z,16.50
2018-04-24T19:04:51.801Z,16.50
2018-04-24T19:07:18.229Z,16.50
2018-04-24T19:09:44.633Z,16.50
2018-04-24T19:12:11.796Z,16.40
2018-04-24T19:14:38.239Z,16.40
2018-04-24T19:17:05.411Z,16.40
2018-04-24T19:19:31.900Z,16.40
2018-04-24T19:21:59.097Z,16.40
2018-04-24T19:24:31.480Z,16.40
2018-04-24T19:26:57.908Z,16.50
2018-04-24T19:29:24.340Z,16.50
2018-04-24T19:31:56.909Z,16.50
2018-04-24T19:34:23.341Z,16.50
2018-04-24T19:36:49.801Z,16.50
2018-04-24T19:39:22.419Z,16.50
2018-04-24T19:41:48.954Z,16.50
2018-04-24T19:44:16.190Z,16.50
2018-04-24T19:46:43.466Z,16.50
2018-04-24T19:49:16.718Z,16.50
2018-04-24T19:51:43.158Z,16.50
2018-04-24T19:54:09.665Z,16.50
2018-04-24T19:56:36.135Z,16.50
2018-04-24T19:59:02.605Z,16.50
2018-04-24T20:01:29.791Z,16.40
2018-04-24T20:03:56.242Z,16.40
2018-04-24T20:06:22.685Z,16.40
2018-04-24T20:08:49.156Z,16.40
2018-04-24T20:11:16.339Z,16.30
2018-04-24T20:13:42.824Z,16.30
2018-04-24T20:16:09.362Z,16.30
2018-04-24T20:18:35.873Z,16.30
2018-04-24T20:21:02.361Z,16.30
2018-04-24T20:23:28.793Z,16.30
2018-04-24T20:25:55.261Z,16.30
2018-04-24T20:28:21.691Z,16.30
2018-04-24T20:30:48.172Z,16.20
2018-04-24T20:33:15.418Z,16.20
2018-04-24T20:35:41.857Z,16.20
2018-04-24T20:38:09.057Z,16.20
2018-04-24T20:40:35.487Z,16.20
2018-04-24T20:43:01.933Z,16.20
2018-04-24T20:45:28.390Z,16.20
2018-04-24T20:47:54.826Z,16.20
2018-04-24T20:50:22.761Z,16.10
2018-04-24T20:52:49.220Z,16.10
2018-04-24T20:55:15.652Z,16.10
2018-04-24T20:57:42.179Z,16.10
2018-04-24T21:00:08.653Z,16.10
2018-04-24T21:02:35.096Z,16.10
2018-04-24T21:05:01.540Z,16.10
2018-04-24T21:07:28.266Z,16.10
2018-04-24T21:09:54.743Z,16.00
2018-04-24T21:12:21.284Z,16.00
2018-04-24T21:14:47.717Z,16.00
2018-04-24T21:17:14.920Z,16.00
2018-04-24T21:19:41.429Z,16.00
2018-04-24T21:22:07.838Z,16.00
2018-04-24T21:24:35.029Z,16.00
2018-04-24T21:27:01.490Z,16.00
2018-04-24T21:29:27.932Z,16.00
2018-04-24T21:31:54.351Z,15.90
2018-04-24T21:34:20.802Z,16.00
2018-04-24T21:36:47.242Z,15.90
2018-04-24T21:39:13.704Z,15.90
2018-04-24T21:41:40.947Z,15.90
2018-04-24T21:44:07.318Z,15.90
2018-04-24T21:46:33.790Z,15.90
2018-04-24T21:49:00.258Z,15.90
2018-04-24T21:51:27.421Z,15.70
2018-04-24T21:53:53.876Z,15.70
2018-04-24T21:56:20.329Z,15.70
2018-04-24T21:58:46.763Z,15.70
2018-04-24T22:01:13.234Z,15.70
2018-04-24T22:03:39.684Z,15.60
2018-04-24T22:06:06.862Z,15.60
2018-04-24T22:08:33.327Z,15.60
2018-04-24T22:10:59.749Z,15.60
2018-04-24T22:13:26.234Z,15.60
2018-04-24T22:15:53.429Z,15.70
2018-04-24T22:18:19.857Z,15.60
2018-04-24T22:20:46.294Z,15.70
2018-04-24T22:23:12.747Z,15.60
2018-04-24T22:25:39.184Z,15.70
2018-04-24T22:28:06.355Z,15.60
2018-04-24T22:30:32.832Z,15.70
2018-04-24T22:32:59.392Z,15.70
2018-04-24T22:35:25.805Z,15.60
2018-04-24T22:37:52.271Z,15.60
2018-04-24T22:40:18.754Z,15.70
2018-04-24T22:42:45.244Z,15.60
2018-04-24T22:45:11.676Z,15.50
2018-04-24T22:47:38.136Z,15.40
2018-04-24T22:50:05.319Z,15.20
2018-04-24T22:52:31.747Z,15.20
2018-04-24T22:54:58.183Z,15.20
2018-04-24T22:57:24.633Z,15.10
2018-04-24T22:59:51.117Z,15.10
2018-04-24T23:02:18.333Z,15.00
2018-04-24T23:04:44.759Z,15.00
2018-04-24T23:07:11.190Z,15.00
2018-04-24T23:09:37.707Z,15.00
2018-04-24T23:12:16.320Z,14.90
2018-04-24T23:14:55.036Z,14.90
2018-04-24T23:17:34.413Z,14.80
2018-04-24T23:20:13.118Z,14.90
2018-04-24T23:22:40.537Z,14.80
2018-04-24T23:25:06.973Z,14.80
2018-04-24T23:27:34.203Z,14.90
2018-04-24T23:30:00.665Z,14.90
2018-04-24T23:32:27.900Z,14.90
2018-04-24T23:34:54.354Z,14.90
2018-04-24T23:37:21.543Z,14.90
2018-04-24T23:39:47.973Z,14.90
2018-04-24T23:42:14.470Z,14.90
2018-04-24T23:44:40.951Z,14.90
2018-04-24T23:47:07.454Z,14.90
2018-04-24T23:49:33.922Z,14.90
2018-04-24T23:52:00.385Z,14.90
2018-04-24T23:54:26.838Z,14.90
2018-04-24T23:56:53.311Z,14.90
2018-04-24T23:59:19.766Z,14.90
